sensor_id;sensor_type;location;lat;lon;timestamp;pressure;altitude;pressure_sealevel;temperature;humidity
39487;BME280;25173;50.430;18.926;2022-10-22T00:02:42;98083.66;;;12.74;58.96
39487;BME280;25173;50.430;18.926;2022-10-22T00:05:43;98075.75;;;12.73;59.05
39487;BME280;25173;50.430;18.926;2022-10-22T00:08:44;98064.00;;;12.72;59.04
39487;BME280;25173;50.430;18.926;2022-10-22T00:11:44;98059.06;;;12.74;59.09
39487;BME280;25173;50.430;18.926;2022-10-22T00:14:46;98064.22;;;12.76;59.08
39487;BME280;25173;50.430;18.926;2022-10-22T00:17:46;98059.56;;;12.76;59.14
39487;BME280;25173;50.430;18.926;2022-10-22T00:20:49;98043.72;;;12.78;59.13
39487;BME280;25173;50.430;18.926;2022-10-22T00:23:49;98045.63;;;12.78;59.10
39487;BME280;25173;50.430;18.926;2022-10-22T00:26:50;98048.66;;;12.76;59.20
39487;BME280;25173;50.430;18.926;2022-10-22T00:29:50;98054.72;;;12.73;59.12
39487;BME280;25173;50.430;18.926;2022-10-22T00:32:51;98067.03;;;12.71;59.23
39487;BME280;25173;50.430;18.926;2022-10-22T00:35:52;98074.94;;;12.72;59.36
39487;BME280;25173;50.430;18.926;2022-10-22T00:38:53;98071.09;;;12.73;59.29
39487;BME280;25173;50.430;18.926;2022-10-22T00:41:54;98058.53;;;12.72;59.31
39487;BME280;25173;50.430;18.926;2022-10-22T00:48:12;98048.78;;;12.66;59.46
39487;BME280;25173;50.430;18.926;2022-10-22T00:51:14;98040.88;;;12.65;59.47
39487;BME280;25173;50.430;18.926;2022-10-22T00:54:15;98038.94;;;12.65;59.55
39487;BME280;25173;50.430;18.926;2022-10-22T00:57:16;98046.34;;;12.65;59.57
39487;BME280;25173;50.430;18.926;2022-10-22T01:00:17;98035.97;;;12.62;59.58
39487;BME280;25173;50.430;18.926;2022-10-22T01:03:19;98032.13;;;12.63;59.64
39487;BME280;25173;50.430;18.926;2022-10-22T01:06:25;98034.31;;;12.66;59.46
39487;BME280;25173;50.430;18.926;2022-10-22T01:09:36;98033.78;;;12.64;59.53
39487;BME280;25173;50.430;18.926;2022-10-22T01:13:15;98031.31;;;12.62;59.62
39487;BME280;25173;50.430;18.926;2022-10-22T01:27:37;98026.00;;;12.52;59.75
39487;BME280;25173;50.430;18.926;2022-10-22T01:30:07;98028.41;;;12.54;59.78
39487;BME280;25173;50.430;18.926;2022-10-22T01:33:11;98031.44;;;12.52;59.92
39487;BME280;25173;50.430;18.926;2022-10-22T01:36:13;98027.59;;;12.53;59.85
39487;BME280;25173;50.430;18.926;2022-10-22T01:39:15;98031.94;;;12.54;59.92
39487;BME280;25173;50.430;18.926;2022-10-22T01:42:16;98030.56;;;12.57;59.77
39487;BME280;25173;50.430;18.926;2022-10-22T01:45:17;98027.56;;;12.58;59.74
39487;BME280;25173;50.430;18.926;2022-10-22T01:49:01;98026.44;;;12.59;59.89
39487;BME280;25173;50.430;18.926;2022-10-22T01:52:16;98023.41;;;12.61;59.81
39487;BME280;25173;50.430;18.926;2022-10-22T02:02:11;98021.00;;;12.59;59.71
39487;BME280;25173;50.430;18.926;2022-10-22T02:05:22;98022.09;;;12.58;59.84
39487;BME280;25173;50.430;18.926;2022-10-22T02:08:30;98023.47;;;12.56;59.90
39487;BME280;25173;50.430;18.926;2022-10-22T02:11:31;98018.53;;;12.58;59.80
39487;BME280;25173;50.430;18.926;2022-10-22T02:14:34;98017.66;;;12.62;59.81
39487;BME280;25173;50.430;18.926;2022-10-22T02:17:37;98017.38;;;12.64;59.76
39487;BME280;25173;50.430;18.926;2022-10-22T02:20:40;98019.56;;;12.62;59.83
39487;BME280;25173;50.430;18.926;2022-10-22T02:23:41;98018.47;;;12.63;59.89
39487;BME280;25173;50.430;18.926;2022-10-22T02:30:07;98019.66;;;12.57;59.85
39487;BME280;25173;50.430;18.926;2022-10-22T02:33:16;98016.91;;;12.57;60.02
39487;BME280;25173;50.430;18.926;2022-10-22T02:36:20;98003.53;;;12.55;60.06
39487;BME280;25173;50.430;18.926;2022-10-22T02:39:21;98001.41;;;12.52;60.02
39487;BME280;25173;50.430;18.926;2022-10-22T02:42:27;98006.91;;;12.47;60.13
39487;BME280;25173;50.430;18.926;2022-10-22T02:45:28;98012.97;;;12.44;60.34
39487;BME280;25173;50.430;18.926;2022-10-22T02:48:29;98011.91;;;12.40;60.39
39487;BME280;25173;50.430;18.926;2022-10-22T02:51:29;98021.19;;;12.39;60.40
39487;BME280;25173;50.430;18.926;2022-10-22T02:54:30;98041.19;;;12.34;60.40
39487;BME280;25173;50.430;18.926;2022-10-22T02:57:31;98047.00;;;12.28;60.56
39487;BME280;25173;50.430;18.926;2022-10-22T03:00:32;98053.59;;;12.22;60.74
39487;BME280;25173;50.430;18.926;2022-10-22T03:03:33;98055.53;;;12.16;60.76
39487;BME280;25173;50.430;18.926;2022-10-22T03:06:33;98062.97;;;12.11;60.81
39487;BME280;25173;50.430;18.926;2022-10-22T03:09:34;98055.44;;;11.97;61.08
39487;BME280;25173;50.430;18.926;2022-10-22T03:12:34;98040.22;;;11.91;61.37
39487;BME280;25173;50.430;18.926;2022-10-22T03:15:35;98045.13;;;11.89;61.35
39487;BME280;25173;50.430;18.926;2022-10-22T03:18:36;98041.38;;;11.85;61.56
39487;BME280;25173;50.430;18.926;2022-10-22T03:21:44;98037.00;;;11.84;61.60
39487;BME280;25173;50.430;18.926;2022-10-22T03:24:49;98024.47;;;11.83;61.69
39487;BME280;25173;50.430;18.926;2022-10-22T03:27:51;98022.25;;;11.85;61.63
39487;BME280;25173;50.430;18.926;2022-10-22T03:30:53;98018.72;;;11.85;61.73
39487;BME280;25173;50.430;18.926;2022-10-22T03:33:54;98011.56;;;11.89;61.57
39487;BME280;25173;50.430;18.926;2022-10-22T03:36:56;98023.25;;;11.94;61.70
39487;BME280;25173;50.430;18.926;2022-10-22T03:39:58;98017.50;;;11.96;61.58
39487;BME280;25173;50.430;18.926;2022-10-22T03:42:59;98018.09;;;11.93;61.65
39487;BME280;25173;50.430;18.926;2022-10-22T03:46:00;98025.47;;;11.92;61.85
39487;BME280;25173;50.430;18.926;2022-10-22T03:49:00;98027.66;;;11.90;61.79
39487;BME280;25173;50.430;18.926;2022-10-22T03:52:13;98035.31;;;11.88;61.84
39487;BME280;25173;50.430;18.926;2022-10-22T03:55:14;98036.41;;;11.87;62.00
39487;BME280;25173;50.430;18.926;2022-10-22T03:58:14;98034.28;;;11.84;62.09
39487;BME280;25173;50.430;18.926;2022-10-22T04:01:15;98027.72;;;11.85;62.13
39487;BME280;25173;50.430;18.926;2022-10-22T04:04:15;98031.75;;;11.93;62.07
39487;BME280;25173;50.430;18.926;2022-10-22T04:07:16;98037.97;;;11.98;62.00
39487;BME280;25173;50.430;18.926;2022-10-22T04:10:16;98039.59;;;11.99;61.98
39487;BME280;25173;50.430;18.926;2022-10-22T04:13:17;98034.66;;;12.01;61.94
39487;BME280;25173;50.430;18.926;2022-10-22T04:16:20;98029.72;;;12.03;61.99
39487;BME280;25173;50.430;18.926;2022-10-22T04:19:21;98029.72;;;12.03;61.98
39487;BME280;25173;50.430;18.926;2022-10-22T04:22:21;98003.53;;;12.02;62.06
39487;BME280;25173;50.430;18.926;2022-10-22T04:25:22;98000.25;;;12.05;61.98
39487;BME280;25173;50.430;18.926;2022-10-22T04:28:22;97983.81;;;12.11;61.91
39487;BME280;25173;50.430;18.926;2022-10-22T04:31:24;97988.69;;;12.14;61.88
39487;BME280;25173;50.430;18.926;2022-10-22T04:34:28;97988.63;;;12.19;61.66
39487;BME280;25173;50.430;18.926;2022-10-22T04:37:28;97995.66;;;12.25;61.75
39487;BME280;25173;50.430;18.926;2022-10-22T04:40:29;97993.47;;;12.27;61.71
39487;BME280;25173;50.430;18.926;2022-10-22T04:43:30;97983.91;;;12.29;61.71
39487;BME280;25173;50.430;18.926;2022-10-22T04:46:32;97996.13;;;12.32;61.64
39487;BME280;25173;50.430;18.926;2022-10-22T04:49:33;97991.22;;;12.34;61.67
39487;BME280;25173;50.430;18.926;2022-10-22T04:52:33;97984.88;;;12.38;61.65
39487;BME280;25173;50.430;18.926;2022-10-22T04:55:34;97976.09;;;12.41;61.70
39487;BME280;25173;50.430;18.926;2022-10-22T04:58:35;97979.88;;;12.45;61.60
39487;BME280;25173;50.430;18.926;2022-10-22T05:01:41;97970.81;;;12.50;61.48
39487;BME280;25173;50.430;18.926;2022-10-22T05:04:43;97972.38;;;12.56;61.52
39487;BME280;25173;50.430;18.926;2022-10-22T05:07:43;97983.53;;;12.60;61.32
39487;BME280;25173;50.430;18.926;2022-10-22T05:10:44;97989.81;;;12.60;61.42
39487;BME280;25173;50.430;18.926;2022-10-22T05:13:45;98011.72;;;12.55;61.34
39487;BME280;25173;50.430;18.926;2022-10-22T05:16:47;98011.84;;;12.45;61.38
39487;BME280;25173;50.430;18.926;2022-10-22T05:19:47;98019.56;;;12.38;61.56
39487;BME280;25173;50.430;18.926;2022-10-22T05:22:48;98011.22;;;12.29;61.83
39487;BME280;25173;50.430;18.926;2022-10-22T05:25:49;98009.59;;;12.23;61.78
39487;BME280;25173;50.430;18.926;2022-10-22T05:28:49;98003.09;;;12.19;61.90
39487;BME280;25173;50.430;18.926;2022-10-22T05:31:50;98008.03;;;12.17;61.92
39487;BME280;25173;50.430;18.926;2022-10-22T05:34:51;98008.63;;;12.14;61.96
39487;BME280;25173;50.430;18.926;2022-10-22T05:37:51;98009.47;;;12.10;62.02
39487;BME280;25173;50.430;18.926;2022-10-22T05:41:19;98021.50;;;12.09;62.21
39487;BME280;25173;50.430;18.926;2022-10-22T05:44:20;98016.91;;;12.04;62.22
39487;BME280;25173;50.430;18.926;2022-10-22T05:47:21;98012.53;;;12.03;62.21
39487;BME280;25173;50.430;18.926;2022-10-22T05:50:21;97995.81;;;12.10;62.18
39487;BME280;25173;50.430;18.926;2022-10-22T05:53:22;97989.47;;;12.19;62.12
39487;BME280;25173;50.430;18.926;2022-10-22T05:56:24;97987.44;;;12.30;62.08
39487;BME280;25173;50.430;18.926;2022-10-22T05:59:25;97995.50;;;12.40;61.98
39487;BME280;25173;50.430;18.926;2022-10-22T06:02:26;98018.06;;;12.51;61.83
39487;BME280;25173;50.430;18.926;2022-10-22T06:05:26;98013.06;;;12.58;61.76
39487;BME280;25173;50.430;18.926;2022-10-22T06:08:28;98003.34;;;12.70;61.69
39487;BME280;25173;50.430;18.926;2022-10-22T06:11:29;97997.78;;;12.80;61.59
39487;BME280;25173;50.430;18.926;2022-10-22T06:14:30;98026.31;;;12.93;61.42
39487;BME280;25173;50.430;18.926;2022-10-22T06:17:32;98050.47;;;13.05;61.29
39487;BME280;25173;50.430;18.926;2022-10-22T06:20:34;98054.28;;;13.09;60.98
39487;BME280;25173;50.430;18.926;2022-10-22T06:23:35;98053.06;;;13.20;61.08
39487;BME280;25173;50.430;18.926;2022-10-22T06:26:36;98065.59;;;13.26;60.69
39487;BME280;25173;50.430;18.926;2022-10-22T06:29:37;98065.94;;;13.38;60.57
39487;BME280;25173;50.430;18.926;2022-10-22T06:32:37;98067.66;;;13.53;60.38
39487;BME280;25173;50.430;18.926;2022-10-22T06:35:38;98070.03;;;13.59;60.15
39487;BME280;25173;50.430;18.926;2022-10-22T06:38:39;98072.19;;;13.63;60.04
39487;BME280;25173;50.430;18.926;2022-10-22T06:41:40;98082.50;;;13.66;59.90
39487;BME280;25173;50.430;18.926;2022-10-22T06:44:41;98080.06;;;13.64;59.73
39487;BME280;25173;50.430;18.926;2022-10-22T06:47:42;98078.47;;;13.63;59.77
39487;BME280;25173;50.430;18.926;2022-10-22T06:50:42;98076.31;;;13.60;59.80
39487;BME280;25173;50.430;18.926;2022-10-22T06:53:43;98079.56;;;13.62;59.87
39487;BME280;25173;50.430;18.926;2022-10-22T06:56:43;98084.59;;;13.74;59.76
39487;BME280;25173;50.430;18.926;2022-10-22T06:59:45;98072.41;;;13.85;59.64
39487;BME280;25173;50.430;18.926;2022-10-22T07:02:49;98077.63;;;14.00;59.48
39487;BME280;25173;50.430;18.926;2022-10-22T07:05:52;98075.81;;;14.09;59.29
39487;BME280;25173;50.430;18.926;2022-10-22T07:08:53;98067.34;;;14.24;59.32
39487;BME280;25173;50.430;18.926;2022-10-22T07:11:54;98069.31;;;14.37;58.92
39487;BME280;25173;50.430;18.926;2022-10-22T07:14:55;98057.50;;;14.56;58.83
39487;BME280;25173;50.430;18.926;2022-10-22T07:17:55;98073.28;;;14.77;58.51
39487;BME280;25173;50.430;18.926;2022-10-22T07:20:56;98069.13;;;14.94;58.43
39487;BME280;25173;50.430;18.926;2022-10-22T07:23:57;98068.28;;;15.07;58.08
39487;BME280;25173;50.430;18.926;2022-10-22T07:26:58;98087.09;;;15.13;57.76
39487;BME280;25173;50.430;18.926;2022-10-22T07:29:59;98096.53;;;15.07;57.40
39487;BME280;25173;50.430;18.926;2022-10-22T07:33:00;98086.69;;;15.06;57.66
39487;BME280;25173;50.430;18.926;2022-10-22T07:36:03;98084.97;;;15.10;57.65
39487;BME280;25173;50.430;18.926;2022-10-22T07:39:04;98090.22;;;15.21;57.49
39487;BME280;25173;50.430;18.926;2022-10-22T07:42:05;98086.59;;;15.25;57.43
39487;BME280;25173;50.430;18.926;2022-10-22T07:45:06;98085.34;;;15.31;57.27
39487;BME280;25173;50.430;18.926;2022-10-22T07:48:07;98080.78;;;15.40;57.18
39487;BME280;25173;50.430;18.926;2022-10-22T07:51:07;98068.25;;;15.48;57.06
39487;BME280;25173;50.430;18.926;2022-10-22T07:54:08;98055.34;;;15.62;56.99
39487;BME280;25173;50.430;18.926;2022-10-22T07:57:08;98076.06;;;15.68;56.66
39487;BME280;25173;50.430;18.926;2022-10-22T08:00:09;98089.97;;;15.72;56.71
39487;BME280;25173;50.430;18.926;2022-10-22T08:03:14;98084.47;;;15.72;56.61
39487;BME280;25173;50.430;18.926;2022-10-22T08:06:15;98084.06;;;15.78;56.61
39487;BME280;25173;50.430;18.926;2022-10-22T08:09:17;98069.50;;;15.91;56.68
39487;BME280;25173;50.430;18.926;2022-10-22T08:12:17;98065.06;;;16.04;56.46
39487;BME280;25173;50.430;18.926;2022-10-22T08:15:18;98065.19;;;16.21;56.30
39487;BME280;25173;50.430;18.926;2022-10-22T08:18:19;98073.66;;;16.34;56.01
39487;BME280;25173;50.430;18.926;2022-10-22T08:21:19;98091.69;;;16.48;55.95
39487;BME280;25173;50.430;18.926;2022-10-22T08:24:20;98103.72;;;16.52;55.49
39487;BME280;25173;50.430;18.926;2022-10-22T08:27:20;98090.44;;;16.54;55.62
39487;BME280;25173;50.430;18.926;2022-10-22T08:30:21;98096.94;;;16.58;55.59
39487;BME280;25173;50.430;18.926;2022-10-22T08:33:22;98089.00;;;16.57;55.67
39487;BME280;25173;50.430;18.926;2022-10-22T08:36:23;98093.59;;;16.61;55.93
39487;BME280;25173;50.430;18.926;2022-10-22T08:39:24;98097.50;;;16.69;55.51
39487;BME280;25173;50.430;18.926;2022-10-22T08:45:59;98117.06;;;16.67;54.91
39487;BME280;25173;50.430;18.926;2022-10-22T08:49:06;98111.81;;;16.57;55.54
39487;BME280;25173;50.430;18.926;2022-10-22T08:52:12;98111.31;;;16.55;55.71
39487;BME280;25173;50.430;18.926;2022-10-22T08:55:14;98095.56;;;16.47;55.63
39487;BME280;25173;50.430;18.926;2022-10-22T09:01:33;98103.22;;;16.28;55.99
39487;BME280;25173;50.430;18.926;2022-10-22T09:04:46;98109.41;;;16.34;55.91
39487;BME280;25173;50.430;18.926;2022-10-22T09:07:51;98102.78;;;16.35;56.28
39487;BME280;25173;50.430;18.926;2022-10-22T09:11:17;98099.44;;;16.46;56.08
39487;BME280;25173;50.430;18.926;2022-10-22T09:14:22;98099.19;;;16.56;55.91
39487;BME280;25173;50.430;18.926;2022-10-22T09:17:28;98094.91;;;16.64;55.88
39487;BME280;25173;50.430;18.926;2022-10-22T09:20:44;98108.06;;;16.76;55.69
39487;BME280;25173;50.430;18.926;2022-10-22T09:23:57;98113.56;;;16.76;55.34
39487;BME280;25173;50.430;18.926;2022-10-22T09:27:10;98116.59;;;16.65;55.02
39487;BME280;25173;50.430;18.926;2022-10-22T09:30:20;98116.31;;;16.53;55.83
39487;BME280;25173;50.430;18.926;2022-10-22T09:33:27;98118.59;;;16.51;55.84
39487;BME280;25173;50.430;18.926;2022-10-22T09:36:30;98126.94;;;16.46;55.85
39487;BME280;25173;50.430;18.926;2022-10-22T09:39:33;98129.44;;;16.34;56.37
39487;BME280;25173;50.430;18.926;2022-10-22T09:42:34;98127.13;;;16.27;56.30
39487;BME280;25173;50.430;18.926;2022-10-22T09:45:35;98130.03;;;16.22;56.44
39487;BME280;25173;50.430;18.926;2022-10-22T09:48:40;98130.19;;;16.26;56.48
39487;BME280;25173;50.430;18.926;2022-10-22T09:54:51;98119.34;;;16.21;56.50
39487;BME280;25173;50.430;18.926;2022-10-22T09:57:54;98128.31;;;16.13;56.80
39487;BME280;25173;50.430;18.926;2022-10-22T10:00:57;98119.41;;;16.07;57.15
39487;BME280;25173;50.430;18.926;2022-10-22T10:04:07;98117.56;;;16.03;57.51
39487;BME280;25173;50.430;18.926;2022-10-22T10:10:24;98112.69;;;16.00;58.03
39487;BME280;25173;50.430;18.926;2022-10-22T10:16:56;98103.34;;;15.87;58.80
39487;BME280;25173;50.430;18.926;2022-10-22T10:33:14;98087.69;;;15.87;59.51
39487;BME280;25173;50.430;18.926;2022-10-22T10:36:31;98092.75;;;15.94;59.92
39487;BME280;25173;50.430;18.926;2022-10-22T10:47:15;98104.72;;;16.12;60.15
39487;BME280;25173;50.430;18.926;2022-10-22T11:01:02;98093.56;;;16.39;60.40
39487;BME280;25173;50.430;18.926;2022-10-22T11:04:29;98102.69;;;16.48;60.12
39487;BME280;25173;50.430;18.926;2022-10-22T11:07:39;98096.94;;;16.58;59.91
39487;BME280;25173;50.430;18.926;2022-10-22T11:11:00;98090.22;;;16.64;59.84
39487;BME280;25173;50.430;18.926;2022-10-22T11:14:40;98091.69;;;16.71;59.70
39487;BME280;25173;50.430;18.926;2022-10-22T11:17:47;98088.34;;;16.74;59.56
39487;BME280;25173;50.430;18.926;2022-10-22T11:20:49;98081.06;;;16.78;59.52
39487;BME280;25173;50.430;18.926;2022-10-22T11:24:04;98074.16;;;16.89;59.55
39487;BME280;25173;50.430;18.926;2022-10-22T11:27:18;98065.63;;;16.99;59.31
39487;BME280;25173;50.430;18.926;2022-10-22T11:30:23;98064.53;;;17.08;59.19
39487;BME280;25173;50.430;18.926;2022-10-22T11:33:28;98068.94;;;17.18;59.14
39487;BME280;25173;50.430;18.926;2022-10-22T11:36:31;98072.84;;;17.26;59.00
39487;BME280;25173;50.430;18.926;2022-10-22T11:39:56;98072.53;;;17.36;59.04
39487;BME280;25173;50.430;18.926;2022-10-22T11:49:18;98069.88;;;17.62;58.62
39487;BME280;25173;50.430;18.926;2022-10-22T11:52:36;98066.31;;;17.70;58.37
39487;BME280;25173;50.430;18.926;2022-10-22T11:55:48;98060.47;;;17.80;58.29
39487;BME280;25173;50.430;18.926;2022-10-22T11:58:53;98069.84;;;17.79;58.30
39487;BME280;25173;50.430;18.926;2022-10-22T12:01:54;98068.25;;;17.78;58.13
39487;BME280;25173;50.430;18.926;2022-10-22T12:08:22;98058.47;;;17.55;58.05
39487;BME280;25173;50.430;18.926;2022-10-22T12:11:25;98057.47;;;17.42;58.83
39487;BME280;25173;50.430;18.926;2022-10-22T12:14:32;98053.44;;;17.39;59.00
39487;BME280;25173;50.430;18.926;2022-10-22T12:17:34;98061.50;;;17.36;59.11
39487;BME280;25173;50.430;18.926;2022-10-22T12:20:34;98069.63;;;17.32;59.28
39487;BME280;25173;50.430;18.926;2022-10-22T12:23:36;98063.63;;;17.30;59.40
39487;BME280;25173;50.430;18.926;2022-10-22T12:26:36;98066.06;;;17.32;59.34
39487;BME280;25173;50.430;18.926;2022-10-22T12:29:37;98049.34;;;17.28;59.30
39487;BME280;25173;50.430;18.926;2022-10-22T12:32:38;98048.06;;;17.26;59.22
39487;BME280;25173;50.430;18.926;2022-10-22T12:35:43;98050.94;;;17.21;59.33
39487;BME280;25173;50.430;18.926;2022-10-22T12:38:45;98052.56;;;17.22;59.28
39487;BME280;25173;50.430;18.926;2022-10-22T12:41:51;98054.97;;;17.15;59.27
39487;BME280;25173;50.430;18.926;2022-10-22T12:44:55;98050.13;;;17.12;59.68
39487;BME280;25173;50.430;18.926;2022-10-22T12:47:58;98061.47;;;17.10;59.82
39487;BME280;25173;50.430;18.926;2022-10-22T12:51:00;98056.06;;;17.05;60.01
39487;BME280;25173;50.430;18.926;2022-10-22T12:54:08;98047.34;;;17.03;60.21
39487;BME280;25173;50.430;18.926;2022-10-22T12:57:12;98033.56;;;16.94;60.34
39487;BME280;25173;50.430;18.926;2022-10-22T13:00:24;98040.50;;;16.92;60.25
39487;BME280;25173;50.430;18.926;2022-10-22T13:03:28;98036.63;;;16.93;60.42
39487;BME280;25173;50.430;18.926;2022-10-22T13:06:33;98034.53;;;16.98;60.51
39487;BME280;25173;50.430;18.926;2022-10-22T13:09:43;98041.50;;;16.96;60.45
39487;BME280;25173;50.430;18.926;2022-10-22T13:12:48;98037.25;;;16.90;60.54
39487;BME280;25173;50.430;18.926;2022-10-22T13:15:49;98044.22;;;16.87;60.56
39487;BME280;25173;50.430;18.926;2022-10-22T13:18:51;98056.50;;;16.81;60.69
39487;BME280;25173;50.430;18.926;2022-10-22T13:21:52;98057.56;;;16.72;60.93
39487;BME280;25173;50.430;18.926;2022-10-22T13:24:53;98050.13;;;16.72;60.95
39487;BME280;25173;50.430;18.926;2022-10-22T13:28:01;98068.06;;;16.69;61.24
39487;BME280;25173;50.430;18.926;2022-10-22T13:31:13;98080.97;;;16.60;61.18
39487;BME280;25173;50.430;18.926;2022-10-22T13:34:20;98061.91;;;16.42;61.57
39487;BME280;25173;50.430;18.926;2022-10-22T13:37:21;98065.13;;;16.35;61.83
39487;BME280;25173;50.430;18.926;2022-10-22T13:40:22;98062.97;;;16.32;61.88
39487;BME280;25173;50.430;18.926;2022-10-22T13:43:23;98048.38;;;16.23;61.98
39487;BME280;25173;50.430;18.926;2022-10-22T13:46:25;98054.81;;;16.18;62.30
39487;BME280;25173;50.430;18.926;2022-10-22T13:49:26;98058.13;;;16.07;62.53
39487;BME280;25173;50.430;18.926;2022-10-22T13:55:29;98068.00;;;15.85;62.53
39487;BME280;25173;50.430;18.926;2022-10-22T13:58:30;98063.34;;;15.72;62.92
39487;BME280;25173;50.430;18.926;2022-10-22T14:01:30;98064.06;;;15.64;62.83
39487;BME280;25173;50.430;18.926;2022-10-22T14:04:32;98057.06;;;15.58;63.13
39487;BME280;25173;50.430;18.926;2022-10-22T14:07:36;98059.81;;;15.58;63.18
39487;BME280;25173;50.430;18.926;2022-10-22T14:10:37;98067.34;;;15.52;63.13
39487;BME280;25173;50.430;18.926;2022-10-22T14:13:38;98078.09;;;15.49;63.30
39487;BME280;25173;50.430;18.926;2022-10-22T14:16:39;98075.47;;;15.44;63.46
39487;BME280;25173;50.430;18.926;2022-10-22T14:19:39;98076.41;;;15.39;63.58
39487;BME280;25173;50.430;18.926;2022-10-22T14:22:40;98072.22;;;15.42;63.63
39487;BME280;25173;50.430;18.926;2022-10-22T14:25:41;98080.28;;;15.38;63.83
39487;BME280;25173;50.430;18.926;2022-10-22T14:28:41;98081.19;;;15.34;63.78
39487;BME280;25173;50.430;18.926;2022-10-22T14:31:42;98082.91;;;15.30;63.78
39487;BME280;25173;50.430;18.926;2022-10-22T14:34:44;98079.47;;;15.24;64.00
39487;BME280;25173;50.430;18.926;2022-10-22T14:37:46;98081.09;;;15.25;64.24
39487;BME280;25173;50.430;18.926;2022-10-22T14:40:47;98086.59;;;15.25;64.37
39487;BME280;25173;50.430;18.926;2022-10-22T14:43:49;98086.25;;;15.27;64.12
39487;BME280;25173;50.430;18.926;2022-10-22T14:46:50;98080.28;;;15.25;64.31
39487;BME280;25173;50.430;18.926;2022-10-22T14:49:53;98071.75;;;15.26;64.27
39487;BME280;25173;50.430;18.926;2022-10-22T14:52:54;98074.16;;;15.28;64.31
39487;BME280;25173;50.430;18.926;2022-10-22T14:55:56;98082.50;;;15.23;64.46
39487;BME280;25173;50.430;18.926;2022-10-22T14:58:58;98074.81;;;15.25;64.75
39487;BME280;25173;50.430;18.926;2022-10-22T15:01:59;98077.44;;;15.30;64.46
39487;BME280;25173;50.430;18.926;2022-10-22T15:04:59;98086.19;;;15.32;64.53
39487;BME280;25173;50.430;18.926;2022-10-22T15:08:01;98087.69;;;15.38;64.48
39487;BME280;25173;50.430;18.926;2022-10-22T15:11:07;98090.94;;;15.40;64.42
39487;BME280;25173;50.430;18.926;2022-10-22T15:14:09;98079.75;;;15.36;64.71
39487;BME280;25173;50.430;18.926;2022-10-22T15:17:09;98087.16;;;15.36;64.76
39487;BME280;25173;50.430;18.926;2022-10-22T15:20:10;98081.97;;;15.34;64.94
39487;BME280;25173;50.430;18.926;2022-10-22T15:23:10;98096.03;;;15.33;64.98
39487;BME280;25173;50.430;18.926;2022-10-22T15:26:12;98094.91;;;15.34;64.95
39487;BME280;25173;50.430;18.926;2022-10-22T15:29:13;98089.44;;;15.34;64.97
39487;BME280;25173;50.430;18.926;2022-10-22T15:32:13;98090.22;;;15.34;65.01
39487;BME280;25173;50.430;18.926;2022-10-22T15:35:14;98090.03;;;15.31;65.16
39487;BME280;25173;50.430;18.926;2022-10-22T15:38:15;98099.97;;;15.27;65.21
39487;BME280;25173;50.430;18.926;2022-10-22T15:41:15;98099.69;;;15.28;65.46
39487;BME280;25173;50.430;18.926;2022-10-22T15:44:18;98095.13;;;15.24;65.45
39487;BME280;25173;50.430;18.926;2022-10-22T15:47:19;98104.75;;;15.21;65.73
39487;BME280;25173;50.430;18.926;2022-10-22T15:50:22;98099.09;;;15.18;65.76
39487;BME280;25173;50.430;18.926;2022-10-22T15:53:23;98109.34;;;15.12;65.91
39487;BME280;25173;50.430;18.926;2022-10-22T15:56:25;98106.69;;;15.07;66.11
39487;BME280;25173;50.430;18.926;2022-10-22T15:59:26;98107.09;;;15.00;66.33
39487;BME280;25173;50.430;18.926;2022-10-22T16:02:26;98109.63;;;14.97;66.45
39487;BME280;25173;50.430;18.926;2022-10-22T16:05:27;98107.00;;;14.92;66.61
39487;BME280;25173;50.430;18.926;2022-10-22T16:08:28;98101.00;;;14.90;66.80
39487;BME280;25173;50.430;18.926;2022-10-22T16:11:30;98114.69;;;14.90;66.96
39487;BME280;25173;50.430;18.926;2022-10-22T16:14:30;98120.13;;;14.95;66.87
39487;BME280;25173;50.430;18.926;2022-10-22T16:17:31;98121.13;;;14.99;66.92
39487;BME280;25173;50.430;18.926;2022-10-22T16:20:32;98136.16;;;15.01;67.05
39487;BME280;25173;50.430;18.926;2022-10-22T16:23:32;98142.47;;;15.02;66.95
39487;BME280;25173;50.430;18.926;2022-10-22T16:26:33;98144.28;;;15.06;67.02
39487;BME280;25173;50.430;18.926;2022-10-22T16:29:36;98149.66;;;14.98;67.35
39487;BME280;25173;50.430;18.926;2022-10-22T16:32:37;98149.16;;;14.96;67.38
39487;BME280;25173;50.430;18.926;2022-10-22T16:35:41;98162.66;;;14.92;67.55
39487;BME280;25173;50.430;18.926;2022-10-22T16:38:41;98169.22;;;14.77;67.73
39487;BME280;25173;50.430;18.926;2022-10-22T16:41:42;98178.97;;;14.70;68.10
39487;BME280;25173;50.430;18.926;2022-10-22T16:44:42;98178.44;;;14.68;68.00
39487;BME280;25173;50.430;18.926;2022-10-22T16:47:43;98180.97;;;14.64;68.33
39487;BME280;25173;50.430;18.926;2022-10-22T16:50:46;98177.72;;;14.62;68.54
39487;BME280;25173;50.430;18.926;2022-10-22T16:53:47;98173.63;;;14.60;68.68
39487;BME280;25173;50.430;18.926;2022-10-22T16:56:47;98181.78;;;14.65;68.49
39487;BME280;25173;50.430;18.926;2022-10-22T16:59:48;98188.28;;;14.69;68.75
39487;BME280;25173;50.430;18.926;2022-10-22T17:02:50;98195.94;;;14.72;68.49
39487;BME280;25173;50.430;18.926;2022-10-22T17:05:52;98199.25;;;14.69;68.66
39487;BME280;25173;50.430;18.926;2022-10-22T17:08:52;98202.69;;;14.61;69.06
39487;BME280;25173;50.430;18.926;2022-10-22T17:11:53;98208.16;;;14.61;69.08
39487;BME280;25173;50.430;18.926;2022-10-22T17:14:54;98216.47;;;14.56;69.35
39487;BME280;25173;50.430;18.926;2022-10-22T17:17:54;98212.19;;;14.50;69.69
39487;BME280;25173;50.430;18.926;2022-10-22T17:20:55;98213.06;;;14.45;69.77
39487;BME280;25173;50.430;18.926;2022-10-22T17:23:57;98221.91;;;14.42;69.87